This is the latest recevied weather packets stored in our database for station/object LU8AQL-WX. If no packets are shown the sender has not sent any weather packets the latest 10 day(s).
| Time | Temp. | Humidity | Pressure | Rain* | Wind** | Luminosity | Snow |
|---|---|---|---|---|---|---|---|
| 1787403604 | 6.11° C | 65% | 1026 hPa | 0 mm | - | - | - |
| 1787403003 | 6.11° C | 65% | 1026 hPa | 0 mm | - | - | - |
| 1787402402 | 6.11° C | 66% | 1026 hPa | 0 mm | - | - | - |
| 1787401801 | 5.56° C | 68% | 1026 hPa | 0 mm | - | - | - |
| 1787401201 | 5.56° C | 69% | 1026 hPa | 0 mm | - | - | - |
| 1787400600 | 5° C | 69% | 1026 hPa | 0 mm | - | - | - |
| 1787399999 | 4.44° C | 70% | 1026 hPa | 0 mm | - | - | - |
| 1787399398 | 4.44° C | 69% | 1026 hPa | 0 mm | - | - | - |
| 1787398798 | 5° C | 67% | 1026 hPa | 0 mm | - | - | - |
| 1787398197 | 5° C | 68% | 1025 hPa | 0 mm | - | - | - |
| 1787397596 | 5° C | 69% | 1025 hPa | 0 mm | - | - | - |
| 1787396995 | 4.44° C | 70% | 1025 hPa | 0 mm | - | - | - |
| 1787396394 | 4.44° C | 71% | 1026 hPa | 0 mm | - | - | - |
| 1787395793 | 3.89° C | 72% | 1026 hPa | 0 mm | - | - | - |
| 1787395192 | 3.89° C | 72% | 1026 hPa | 0 mm | - | - | - |
| 1787394591 | 3.89° C | 72% | 1025 hPa | 0 mm | - | - | - |
| 1787393990 | 3.89° C | 73% | 1025 hPa | 0 mm | - | - | - |
| 1787393389 | 3.89° C | 73% | 1025 hPa | 0 mm | - | - | - |
| 1787392788 | 3.89° C | 76% | 1026 hPa | 0 mm | - | - | - |
| 1787392187 | 3.89° C | 75% | 1026 hPa | 0 mm | - | - | - |
| 1787391586 | 3.89° C | 75% | 1026 hPa | 0 mm | - | - | - |
| 1787390985 | 3.89° C | 75% | 1025 hPa | 0 mm | - | - | - |
| 1787390384 | 4.44° C | 74% | 1025 hPa | 0 mm | - | - | - |
| 1787389783 | 5° C | 72% | 1025 hPa | 0 mm | - | - | - |
| 1787389182 | 5° C | 72% | 1026 hPa | 0 mm | - | - | - |
* Rain latest hour (hover to see other rain measurements)
** Current wind speed in m/s (hover to see current wind gust speed)